createdAt,value
2023-01-30T00:02:16.166Z,0.40
2023-01-30T00:05:01.377Z,0.30
2023-01-30T00:07:47.710Z,0.20
2023-01-30T00:10:33.501Z,0.30
2023-01-30T00:13:18.529Z,0.50
2023-01-30T00:16:04.476Z,0.50
2023-01-30T00:18:50.567Z,0.40
2023-01-30T00:21:35.911Z,0.50
2023-01-30T00:24:21.430Z,0.40
2023-01-30T00:27:06.801Z,0.50
2023-01-30T00:30:02.424Z,0.40
2023-01-30T00:32:47.805Z,0.50
2023-01-30T00:35:33.420Z,0.30
2023-01-30T00:38:18.562Z,0.20
2023-01-30T00:41:04.189Z,0.30
2023-01-30T00:44:08.150Z,0.20
2023-01-30T00:47:05.559Z,0.20
2023-01-30T00:49:50.654Z,0.20
2023-01-30T00:52:36.026Z,0.20
2023-01-30T00:55:21.538Z,0.30
2023-01-30T00:58:07.342Z,0.20
2023-01-30T01:39:58.481Z,0.20
2023-01-30T02:05:13.685Z,0.10
2023-01-30T02:16:21.872Z,-0.20
2023-01-30T02:19:23.961Z,0.20
2023-01-30T02:22:40.139Z,0.10
2023-01-30T02:25:44.316Z,0.10
2023-01-30T02:28:50.614Z,-0.20
2023-01-30T02:31:55.844Z,0.00
2023-01-30T02:34:50.085Z,-0.10
2023-01-30T02:38:11.913Z,-0.10
2023-01-30T02:41:29.221Z,0.00
2023-01-30T02:44:25.190Z,0.10
2023-01-30T02:47:35.096Z,0.20
2023-01-30T02:50:25.953Z,0.20
2023-01-30T02:53:12.295Z,0.40
2023-01-30T02:55:57.715Z,0.30
2023-01-30T02:58:48.090Z,0.30
2023-01-30T03:02:03.617Z,0.20
2023-01-30T03:04:57.668Z,0.30
2023-01-30T03:07:50.590Z,0.40
2023-01-30T03:10:49.671Z,0.50
2023-01-30T03:14:02.695Z,0.40
2023-01-30T03:16:51.711Z,0.40
2023-01-30T03:19:37.300Z,0.50
2023-01-30T03:22:22.743Z,0.40
2023-01-30T03:25:08.987Z,0.30
2023-01-30T03:27:55.434Z,0.30
2023-01-30T03:30:40.532Z,0.50
2023-01-30T03:33:25.880Z,0.50
2023-01-30T03:36:11.938Z,0.60
2023-01-30T03:38:57.463Z,0.70
2023-01-30T03:41:42.902Z,0.70
2023-01-30T03:44:28.314Z,0.80
2023-01-30T03:47:13.684Z,0.80
2023-01-30T03:49:59.048Z,0.80
2023-01-30T03:52:44.435Z,0.80
2023-01-30T03:55:29.756Z,0.90
2023-01-30T03:58:15.250Z,0.80
2023-01-30T04:01:00.667Z,0.80
2023-01-30T04:03:46.158Z,0.70
2023-01-30T04:06:31.552Z,0.80
2023-01-30T04:09:16.644Z,0.80
2023-01-30T04:12:01.927Z,0.90
2023-01-30T04:14:47.292Z,0.80
2023-01-30T04:17:32.687Z,0.70
2023-01-30T04:20:18.227Z,0.60
2023-01-30T04:23:03.606Z,0.60
2023-01-30T04:25:48.908Z,0.80
2023-01-30T04:28:35.003Z,0.90
2023-01-30T04:31:20.175Z,0.80
2023-01-30T04:34:05.449Z,1.00
2023-01-30T04:36:50.822Z,0.90
2023-01-30T04:39:36.191Z,0.90
2023-01-30T04:42:21.485Z,1.00
2023-01-30T04:45:07.335Z,1.00
2023-01-30T04:47:52.710Z,1.10
2023-01-30T04:50:38.780Z,1.10
2023-01-30T04:53:25.329Z,1.20
2023-01-30T04:56:10.606Z,1.10
2023-01-30T04:58:56.182Z,1.10
2023-01-30T05:01:41.667Z,1.10
2023-01-30T05:04:26.926Z,1.00
2023-01-30T05:07:12.423Z,1.00
2023-01-30T05:09:57.751Z,0.90
2023-01-30T05:12:43.595Z,0.90
2023-01-30T05:15:28.624Z,1.10
2023-01-30T05:18:13.878Z,1.00
2023-01-30T05:21:10.796Z,1.00
2023-01-30T05:23:56.918Z,1.00
2023-01-30T05:26:42.120Z,1.10
2023-01-30T05:29:27.519Z,1.10
2023-01-30T05:32:16.837Z,1.10
2023-01-30T05:35:02.324Z,1.10
2023-01-30T05:37:50.965Z,1.20
2023-01-30T05:40:36.326Z,1.20
2023-01-30T05:43:21.725Z,1.20
2023-01-30T05:46:07.636Z,1.20
2023-01-30T05:48:53.010Z,1.20
2023-01-30T05:51:38.229Z,1.20
2023-01-30T05:54:23.759Z,1.20
2023-01-30T05:57:09.153Z,1.20
2023-01-30T05:59:54.428Z,1.30
2023-01-30T06:02:40.077Z,1.40
2023-01-30T06:05:25.072Z,1.40
2023-01-30T06:08:10.336Z,1.40
2023-01-30T06:10:59.363Z,1.40
2023-01-30T06:13:44.724Z,1.30
2023-01-30T06:16:29.909Z,1.30
2023-01-30T06:19:15.194Z,1.30
2023-01-30T06:22:00.609Z,1.30
2023-01-30T06:24:46.124Z,1.20
2023-01-30T06:27:31.301Z,1.20
2023-01-30T06:30:17.067Z,1.10
2023-01-30T06:33:02.094Z,1.20
2023-01-30T06:35:50.914Z,1.20
2023-01-30T06:38:36.603Z,1.30
2023-01-30T06:41:21.821Z,1.30
2023-01-30T06:44:08.475Z,1.30
2023-01-30T06:46:53.545Z,1.30
2023-01-30T06:49:38.840Z,1.10
2023-01-30T06:52:24.201Z,1.00
2023-01-30T06:55:11.534Z,1.00
2023-01-30T06:58:13.629Z,1.10
2023-01-30T07:00:59.146Z,1.10
2023-01-30T07:03:44.654Z,1.10
2023-01-30T07:06:30.305Z,1.10
2023-01-30T07:09:15.638Z,1.20
2023-01-30T07:12:01.069Z,1.30
2023-01-30T07:14:46.605Z,1.30
2023-01-30T07:17:32.008Z,1.30
2023-01-30T07:20:17.381Z,1.30
2023-01-30T07:23:03.009Z,1.20
2023-01-30T07:25:48.248Z,1.20
2023-01-30T07:28:33.749Z,1.30
2023-01-30T07:31:19.225Z,1.30
2023-01-30T07:34:04.564Z,1.40
2023-01-30T07:36:49.810Z,1.50
2023-01-30T07:39:35.372Z,1.30
2023-01-30T07:42:20.507Z,1.20
2023-01-30T07:45:06.220Z,1.30
2023-01-30T07:47:51.647Z,1.40
2023-01-30T07:50:37.061Z,1.40
2023-01-30T07:53:22.236Z,1.40
2023-01-30T07:56:08.858Z,1.40
2023-01-30T07:58:55.480Z,1.50
2023-01-30T08:01:40.488Z,1.30
2023-01-30T08:04:25.680Z,1.30
2023-01-30T08:07:11.034Z,1.40
2023-01-30T08:09:56.325Z,1.50
2023-01-30T08:12:42.143Z,1.50
2023-01-30T08:15:27.845Z,1.60
2023-01-30T08:18:12.803Z,1.60
2023-01-30T08:21:02.631Z,1.60
2023-01-30T08:23:47.843Z,1.70
2023-01-30T08:26:33.208Z,1.80
2023-01-30T08:29:18.544Z,1.90
2023-01-30T08:32:04.018Z,2.00
2023-01-30T08:34:49.357Z,1.90
2023-01-30T08:37:34.903Z,1.90
2023-01-30T08:40:20.579Z,1.80
2023-01-30T08:43:06.964Z,1.80
2023-01-30T08:45:56.726Z,1.80
2023-01-30T08:48:49.535Z,1.80
2023-01-30T08:51:35.306Z,1.80
2023-01-30T08:54:20.816Z,1.80
2023-01-30T08:57:06.162Z,1.80
2023-01-30T08:59:52.191Z,1.80
2023-01-30T09:02:37.879Z,1.80
2023-01-30T09:05:23.708Z,1.70
2023-01-30T09:08:09.087Z,1.70
2023-01-30T09:10:59.367Z,1.80
2023-01-30T09:13:44.749Z,1.70
2023-01-30T09:16:30.902Z,1.70
2023-01-30T09:19:16.048Z,1.70
2023-01-30T09:22:01.529Z,1.80
2023-01-30T09:24:46.930Z,1.80
2023-01-30T09:27:32.694Z,1.70
2023-01-30T09:30:19.211Z,1.70
2023-01-30T09:33:04.634Z,1.70
2023-01-30T09:35:50.668Z,1.70
2023-01-30T09:38:35.837Z,1.70
2023-01-30T09:41:46.439Z,1.80
2023-01-30T09:45:08.986Z,1.80
2023-01-30T09:48:18.325Z,1.80
2023-01-30T09:51:19.940Z,1.80
2023-01-30T09:54:22.169Z,2.00
2023-01-30T09:57:22.502Z,1.90
2023-01-30T10:00:23.280Z,1.90
2023-01-30T10:03:08.320Z,1.80
2023-01-30T10:06:05.474Z,1.80
2023-01-30T10:09:06.652Z,1.90
2023-01-30T10:12:15.118Z,1.80
2023-01-30T10:15:23.633Z,2.00
2023-01-30T10:18:29.808Z,1.90
2023-01-30T10:21:26.974Z,2.00
2023-01-30T10:24:22.158Z,2.00
2023-01-30T10:27:16.721Z,1.90
2023-01-30T10:30:05.804Z,2.00
2023-01-30T10:33:02.184Z,2.10
2023-01-30T10:36:02.469Z,2.20
2023-01-30T10:38:50.567Z,2.10
2023-01-30T10:41:42.174Z,2.10
2023-01-30T10:44:27.232Z,2.20
2023-01-30T10:47:46.310Z,2.20
2023-01-30T10:50:55.724Z,2.20
2023-01-30T10:53:50.578Z,2.10
2023-01-30T10:57:13.249Z,2.20
2023-01-30T11:00:20.672Z,2.30
2023-01-30T11:03:18.043Z,2.20
2023-01-30T11:06:10.680Z,2.20
2023-01-30T11:08:56.417Z,2.20
2023-01-30T11:11:49.514Z,2.20
2023-01-30T11:15:01.514Z,2.40
2023-01-30T11:17:47.129Z,2.30
2023-01-30T11:20:40.031Z,2.40
2023-01-30T11:23:30.813Z,2.30
2023-01-30T11:26:48.025Z,2.30
2023-01-30T11:29:35.213Z,2.30
2023-01-30T11:32:27.837Z,2.20
2023-01-30T11:35:15.817Z,2.40
2023-01-30T11:38:28.269Z,2.30
2023-01-30T11:41:21.993Z,2.30
2023-01-30T11:44:10.076Z,2.40
2023-01-30T11:47:00.110Z,2.50
2023-01-30T11:50:04.596Z,2.50
2023-01-30T11:52:54.374Z,2.60
2023-01-30T11:55:41.690Z,2.50
2023-01-30T11:58:32.968Z,2.60
2023-01-30T12:01:18.710Z,2.70
2023-01-30T12:04:09.163Z,2.60
2023-01-30T12:07:19.429Z,2.40
2023-01-30T12:10:23.581Z,2.40
2023-01-30T12:13:30.818Z,2.40
2023-01-30T12:16:49.858Z,2.50
2023-01-30T12:19:52.556Z,2.40
2023-01-30T12:22:56.657Z,2.40
2023-01-30T12:25:55.122Z,2.50
2023-01-30T12:29:01.850Z,2.60
2023-01-30T12:31:50.988Z,2.60
2023-01-30T12:34:36.245Z,2.80
2023-01-30T12:37:45.399Z,2.70
2023-01-30T12:40:49.778Z,2.70
2023-01-30T12:43:50.326Z,2.60
2023-01-30T12:46:58.993Z,2.70
2023-01-30T12:50:06.314Z,2.80
2023-01-30T12:53:05.107Z,2.80
2023-01-30T12:56:16.838Z,2.60
2023-01-30T12:59:34.933Z,2.50
2023-01-30T13:02:52.386Z,2.50
2023-01-30T13:05:46.425Z,2.50
2023-01-30T13:09:00.816Z,2.50
2023-01-30T13:11:56.915Z,2.60
2023-01-30T13:14:50.540Z,2.60
2023-01-30T13:18:10.783Z,2.70
2023-01-30T13:21:07.282Z,2.60
2023-01-30T13:24:01.601Z,2.60
2023-01-30T13:26:49.001Z,2.70
2023-01-30T13:29:39.526Z,2.70
2023-01-30T13:32:37.079Z,2.70
2023-01-30T13:35:36.782Z,2.70
2023-01-30T13:38:26.544Z,2.70
2023-01-30T13:41:14.561Z,2.70
2023-01-30T13:44:02.255Z,2.70
2023-01-30T13:46:50.908Z,2.80
2023-01-30T13:50:09.541Z,2.80
2023-01-30T13:53:04.087Z,2.90
2023-01-30T13:56:01.241Z,2.80
2023-01-30T13:59:09.958Z,3.00
2023-01-30T14:02:04.655Z,3.00
2023-01-30T14:04:54.886Z,3.00
2023-01-30T14:07:42.947Z,3.00
2023-01-30T14:10:28.434Z,3.00
2023-01-30T14:13:16.079Z,3.00
2023-01-30T14:16:06.082Z,2.90
2023-01-30T14:18:51.488Z,3.00
2023-01-30T14:21:38.412Z,3.10
2023-01-30T14:24:27.502Z,3.10
2023-01-30T14:27:24.651Z,3.10
2023-01-30T14:30:32.590Z,3.10
2023-01-30T14:33:20.735Z,3.30
2023-01-30T14:36:06.334Z,3.30
2023-01-30T14:39:17.246Z,3.20
2023-01-30T14:42:20.151Z,3.20
2023-01-30T14:45:15.425Z,3.20
2023-01-30T14:48:27.602Z,3.20
2023-01-30T14:51:40.409Z,3.30
2023-01-30T14:54:41.800Z,3.30
2023-01-30T14:57:32.865Z,3.40
2023-01-30T15:00:20.851Z,3.30
2023-01-30T15:03:18.679Z,3.30
2023-01-30T15:06:04.768Z,3.30
2023-01-30T15:08:50.445Z,3.30
2023-01-30T15:11:37.400Z,3.40
2023-01-30T15:14:34.045Z,3.50
2023-01-30T15:18:09.049Z,3.50
2023-01-30T15:21:37.227Z,3.50
2023-01-30T15:24:31.062Z,3.40
2023-01-30T15:27:38.404Z,3.50
2023-01-30T15:30:58.074Z,3.50
2023-01-30T15:33:48.163Z,3.50
2023-01-30T15:36:38.732Z,3.50
2023-01-30T15:39:26.021Z,3.50
2023-01-30T15:42:16.133Z,3.50
2023-01-30T15:45:12.673Z,3.60
2023-01-30T15:48:09.938Z,3.70
2023-01-30T15:50:58.894Z,3.80
2023-01-30T15:53:47.170Z,3.90
2023-01-30T15:56:32.590Z,4.00
2023-01-30T15:59:38.233Z,3.90
2023-01-30T16:02:33.450Z,3.80
2023-01-30T16:05:21.913Z,3.80
2023-01-30T16:08:26.126Z,3.90
2023-01-30T16:11:11.149Z,3.80
2023-01-30T16:13:56.577Z,3.80
2023-01-30T16:16:50.815Z,3.80
2023-01-30T16:19:37.914Z,3.80
2023-01-30T16:22:23.765Z,3.80
2023-01-30T16:25:19.985Z,3.70
2023-01-30T16:28:05.194Z,3.80
2023-01-30T16:31:06.288Z,3.80
2023-01-30T16:33:52.515Z,3.80
2023-01-30T16:36:41.207Z,3.80
2023-01-30T16:39:35.569Z,3.90
2023-01-30T16:42:31.013Z,3.80
2023-01-30T16:45:21.083Z,3.80
2023-01-30T16:48:19.370Z,3.80
2023-01-30T16:51:17.648Z,3.70
2023-01-30T16:54:04.855Z,3.80
2023-01-30T16:56:54.410Z,3.80
2023-01-30T16:59:39.629Z,3.80
2023-01-30T17:02:33.190Z,3.90
2023-01-30T17:05:21.479Z,3.80
2023-01-30T17:08:26.726Z,3.80
2023-01-30T17:11:31.333Z,3.80
2023-01-30T17:14:16.468Z,3.70
2023-01-30T17:17:09.911Z,3.70
2023-01-30T17:19:55.538Z,3.70
2023-01-30T17:22:44.286Z,3.80
2023-01-30T17:25:35.739Z,3.80
2023-01-30T17:28:23.956Z,3.80
2023-01-30T17:31:13.505Z,3.90
2023-01-30T17:33:58.968Z,3.90
2023-01-30T17:36:46.636Z,3.80
2023-01-30T17:39:32.171Z,3.80
2023-01-30T17:42:22.071Z,3.80
2023-01-30T17:45:08.055Z,3.80
2023-01-30T17:47:53.385Z,3.80
2023-01-30T17:50:38.772Z,3.90
2023-01-30T17:53:24.006Z,3.90
2023-01-30T17:56:23.585Z,3.90
2023-01-30T17:59:14.106Z,4.00
2023-01-30T18:01:59.795Z,4.10
2023-01-30T18:04:44.673Z,4.10
2023-01-30T18:07:29.939Z,4.10
2023-01-30T18:10:18.334Z,4.10
2023-01-30T18:13:03.678Z,4.10
2023-01-30T18:15:49.095Z,4.10
2023-01-30T18:18:34.553Z,4.10
2023-01-30T18:21:22.099Z,4.10
2023-01-30T18:24:07.583Z,4.00
2023-01-30T18:26:53.024Z,4.10
2023-01-30T18:29:37.985Z,4.20
2023-01-30T18:32:23.419Z,4.10
2023-01-30T18:35:09.020Z,4.10
2023-01-30T18:37:55.777Z,4.30
2023-01-30T18:40:42.327Z,4.20
2023-01-30T18:43:27.617Z,4.20
2023-01-30T18:46:17.767Z,4.10
2023-01-30T18:49:03.283Z,4.10
2023-01-30T18:51:48.613Z,4.00
2023-01-30T18:54:34.006Z,4.00
2023-01-30T18:57:19.439Z,3.90
2023-01-30T19:00:05.618Z,3.90
2023-01-30T19:02:52.193Z,3.90
2023-01-30T19:05:37.443Z,3.90
2023-01-30T19:08:23.283Z,4.00
2023-01-30T19:11:31.107Z,4.00
2023-01-30T19:14:16.642Z,4.00
2023-01-30T19:17:01.771Z,4.00
2023-01-30T19:19:47.284Z,4.00
2023-01-30T19:22:32.491Z,3.90
2023-01-30T19:25:17.814Z,3.90
2023-01-30T19:28:03.239Z,3.90
2023-01-30T19:30:49.346Z,3.90
2023-01-30T19:33:35.214Z,3.80
2023-01-30T19:36:22.145Z,3.80
2023-01-30T19:39:07.803Z,3.90
2023-01-30T19:41:52.963Z,3.80
2023-01-30T19:44:40.899Z,3.80
2023-01-30T19:47:26.230Z,3.80
2023-01-30T19:50:12.111Z,3.80
2023-01-30T19:52:57.240Z,3.80
2023-01-30T19:55:42.600Z,3.80
2023-01-30T19:58:27.812Z,3.80
2023-01-30T20:01:15.651Z,3.80
2023-01-30T20:04:02.469Z,3.80
2023-01-30T20:06:49.818Z,3.90
2023-01-30T20:09:35.068Z,4.00
2023-01-30T20:12:21.815Z,4.10
2023-01-30T20:15:07.729Z,4.10
2023-01-30T20:17:52.965Z,4.10
2023-01-30T20:20:38.285Z,4.00
2023-01-30T20:23:23.634Z,4.10
2023-01-30T20:26:12.399Z,4.00
2023-01-30T20:28:58.464Z,4.00
2023-01-30T20:31:43.883Z,4.00
2023-01-30T20:34:29.458Z,3.90
2023-01-30T20:37:14.670Z,3.80
2023-01-30T20:40:00.143Z,3.90
2023-01-30T20:42:45.517Z,4.00
2023-01-30T20:45:31.048Z,4.10
2023-01-30T20:48:16.466Z,4.10
2023-01-30T20:51:07.359Z,4.00
2023-01-30T20:54:01.209Z,4.20
2023-01-30T20:56:49.152Z,4.20
2023-01-30T20:59:34.801Z,4.20
2023-01-30T21:02:20.463Z,4.20
2023-01-30T21:05:06.164Z,4.10
2023-01-30T21:07:51.270Z,4.10
2023-01-30T21:10:37.179Z,4.00
2023-01-30T21:13:24.416Z,3.90
2023-01-30T21:16:17.063Z,3.90
2023-01-30T21:19:05.960Z,4.00
2023-01-30T21:21:54.892Z,4.00
2023-01-30T21:24:39.918Z,4.00
2023-01-30T21:27:25.145Z,4.20
2023-01-30T21:30:11.208Z,4.20
2023-01-30T21:32:57.538Z,4.10
2023-01-30T21:35:43.024Z,4.00
2023-01-30T21:38:47.750Z,4.00
2023-01-30T21:41:57.884Z,3.90
2023-01-30T21:44:43.185Z,3.90
2023-01-30T21:47:28.627Z,3.80
2023-01-30T21:50:14.154Z,3.90
2023-01-30T21:52:59.577Z,4.00
2023-01-30T21:55:51.210Z,4.00
2023-01-30T21:58:36.719Z,4.10
2023-01-30T22:01:22.884Z,4.00
2023-01-30T22:04:11.167Z,3.90
2023-01-30T22:06:56.299Z,4.00
2023-01-30T22:09:41.575Z,4.00
2023-01-30T22:12:27.182Z,4.20
2023-01-30T22:15:12.484Z,4.10
2023-01-30T22:17:57.861Z,4.10
2023-01-30T22:20:43.208Z,4.10
2023-01-30T22:23:33.860Z,4.00
2023-01-30T22:26:21.534Z,3.90
2023-01-30T22:29:06.901Z,3.90
2023-01-30T22:31:52.231Z,4.00
2023-01-30T22:34:37.522Z,4.00
2023-01-30T22:37:23.036Z,4.00
2023-01-30T22:40:08.960Z,4.00
2023-01-30T22:42:54.857Z,4.00
2023-01-30T22:45:40.261Z,3.90
2023-01-30T22:48:26.085Z,3.90
2023-01-30T22:51:13.847Z,3.90
2023-01-30T22:54:01.859Z,4.00
2023-01-30T22:56:48.762Z,4.00
2023-01-30T22:59:34.419Z,4.10
2023-01-30T23:02:19.795Z,4.10
2023-01-30T23:05:06.332Z,4.20
2023-01-30T23:07:51.667Z,4.10
2023-01-30T23:10:40.335Z,4.00
2023-01-30T23:13:25.815Z,4.00
2023-01-30T23:16:12.277Z,4.00
2023-01-30T23:18:58.776Z,4.00
2023-01-30T23:21:45.596Z,4.20
2023-01-30T23:24:30.831Z,4.10
2023-01-30T23:27:16.282Z,4.00
2023-01-30T23:30:01.777Z,4.00
2023-01-30T23:32:47.116Z,3.90
2023-01-30T23:35:34.242Z,4.00
2023-01-30T23:38:20.070Z,4.00
2023-01-30T23:41:09.494Z,4.00
2023-01-30T23:43:55.658Z,4.10
2023-01-30T23:46:42.307Z,4.10
2023-01-30T23:49:28.221Z,4.00
2023-01-30T23:52:13.922Z,4.00
2023-01-30T23:54:59.091Z,4.00
2023-01-30T23:57:44.627Z,4.10
